sensor_id;sensor_type;location;lat;lon;timestamp;P1;durP1;ratioP1;P2;durP2;ratioP2
7813;SDS011;3952;48.364;16.022;2023-10-13T00:02:10;7.40;;;6.70;;
7813;SDS011;3952;48.364;16.022;2023-10-13T00:04:39;7.80;;;7.20;;
7813;SDS011;3952;48.364;16.022;2023-10-13T00:07:07;9.32;;;8.32;;
7813;SDS011;3952;48.364;16.022;2023-10-13T00:09:35;7.93;;;7.33;;
7813;SDS011;3952;48.364;16.022;2023-10-13T00:12:03;10.30;;;7.67;;
7813;SDS011;3952;48.364;16.022;2023-10-13T00:14:35;12.80;;;8.07;;
7813;SDS011;3952;48.364;16.022;2023-10-13T00:17:04;9.47;;;7.93;;
7813;SDS011;3952;48.364;16.022;2023-10-13T00:19:40;10.20;;;8.27;;
7813;SDS011;3952;48.364;16.022;2023-10-13T00:22:12;10.23;;;8.67;;
7813;SDS011;3952;48.364;16.022;2023-10-13T00:24:43;9.23;;;8.30;;
7813;SDS011;3952;48.364;16.022;2023-10-13T00:27:12;10.10;;;8.50;;
7813;SDS011;3952;48.364;16.022;2023-10-13T00:29:56;9.73;;;8.63;;
7813;SDS011;3952;48.364;16.022;2023-10-13T00:32:47;8.73;;;7.87;;
7813;SDS011;3952;48.364;16.022;2023-10-13T00:35:20;9.00;;;8.10;;
7813;SDS011;3952;48.364;16.022;2023-10-13T00:37:54;11.60;;;9.20;;
7813;SDS011;3952;48.364;16.022;2023-10-13T00:40:22;9.43;;;8.50;;
7813;SDS011;3952;48.364;16.022;2023-10-13T00:43:09;8.57;;;7.87;;
7813;SDS011;3952;48.364;16.022;2023-10-13T00:46:00;9.90;;;9.10;;
7813;SDS011;3952;48.364;16.022;2023-10-13T00:48:34;10.50;;;9.50;;
7813;SDS011;3952;48.364;16.022;2023-10-13T00:51:08;11.70;;;9.40;;
7813;SDS011;3952;48.364;16.022;2023-10-13T00:53:44;9.93;;;9.03;;
7813;SDS011;3952;48.364;16.022;2023-10-13T00:56:13;18.43;;;12.40;;
7813;SDS011;3952;48.364;16.022;2023-10-13T00:58:47;12.13;;;11.07;;
7813;SDS011;3952;48.364;16.022;2023-10-13T01:01:19;11.10;;;9.97;;
7813;SDS011;3952;48.364;16.022;2023-10-13T01:03:47;9.80;;;8.90;;
7813;SDS011;3952;48.364;16.022;2023-10-13T01:06:16;7.97;;;7.17;;
7813;SDS011;3952;48.364;16.022;2023-10-13T01:08:45;8.77;;;8.07;;
7813;SDS011;3952;48.364;16.022;2023-10-13T01:11:17;7.93;;;7.17;;
7813;SDS011;3952;48.364;16.022;2023-10-13T01:13:44;10.80;;;7.67;;
7813;SDS011;3952;48.364;16.022;2023-10-13T01:16:16;9.33;;;7.87;;
7813;SDS011;3952;48.364;16.022;2023-10-13T01:18:43;7.37;;;6.87;;
7813;SDS011;3952;48.364;16.022;2023-10-13T01:21:15;8.00;;;7.10;;
7813;SDS011;3952;48.364;16.022;2023-10-13T01:23:46;8.87;;;8.17;;
7813;SDS011;3952;48.364;16.022;2023-10-13T01:26:16;8.50;;;7.50;;
7813;SDS011;3952;48.364;16.022;2023-10-13T01:28:48;8.47;;;7.60;;
7813;SDS011;3952;48.364;16.022;2023-10-13T01:31:16;8.00;;;7.23;;
7813;SDS011;3952;48.364;16.022;2023-10-13T01:33:55;7.90;;;7.30;;
7813;SDS011;3952;48.364;16.022;2023-10-13T01:36:24;10.77;;;7.57;;
7813;SDS011;3952;48.364;16.022;2023-10-13T01:38:53;8.83;;;8.00;;
7813;SDS011;3952;48.364;16.022;2023-10-13T01:41:21;9.20;;;8.40;;
7813;SDS011;3952;48.364;16.022;2023-10-13T01:43:48;9.33;;;8.07;;
7813;SDS011;3952;48.364;16.022;2023-10-13T01:46:16;9.43;;;8.47;;
7813;SDS011;3952;48.364;16.022;2023-10-13T01:48:47;8.03;;;7.23;;
7813;SDS011;3952;48.364;16.022;2023-10-13T01:51:14;8.53;;;7.93;;
7813;SDS011;3952;48.364;16.022;2023-10-13T01:53:40;9.10;;;8.13;;
7813;SDS011;3952;48.364;16.022;2023-10-13T01:56:10;14.97;;;12.70;;
7813;SDS011;3952;48.364;16.022;2023-10-13T01:58:38;14.93;;;11.60;;
7813;SDS011;3952;48.364;16.022;2023-10-13T02:01:07;12.63;;;11.47;;
7813;SDS011;3952;48.364;16.022;2023-10-13T02:03:35;16.40;;;10.07;;
7813;SDS011;3952;48.364;16.022;2023-10-13T02:06:07;10.07;;;9.13;;
7813;SDS011;3952;48.364;16.022;2023-10-13T02:08:36;10.03;;;8.70;;
7813;SDS011;3952;48.364;16.022;2023-10-13T02:11:07;9.90;;;9.03;;
7813;SDS011;3952;48.364;16.022;2023-10-13T02:13:36;12.67;;;9.37;;
7813;SDS011;3952;48.364;16.022;2023-10-13T02:16:07;12.60;;;11.37;;
7813;SDS011;3952;48.364;16.022;2023-10-13T02:18:37;9.20;;;8.30;;
7813;SDS011;3952;48.364;16.022;2023-10-13T02:21:08;10.70;;;9.67;;
7813;SDS011;3952;48.364;16.022;2023-10-13T02:23:39;10.10;;;9.20;;
7813;SDS011;3952;48.364;16.022;2023-10-13T02:26:11;11.63;;;8.50;;
7813;SDS011;3952;48.364;16.022;2023-10-13T02:28:40;9.20;;;8.37;;
7813;SDS011;3952;48.364;16.022;2023-10-13T02:31:07;10.60;;;8.43;;
7813;SDS011;3952;48.364;16.022;2023-10-13T02:33:34;8.83;;;8.13;;
7813;SDS011;3952;48.364;16.022;2023-10-13T02:36:01;8.80;;;7.93;;
7813;SDS011;3952;48.364;16.022;2023-10-13T02:38:30;8.73;;;7.93;;
7813;SDS011;3952;48.364;16.022;2023-10-13T02:41:00;8.93;;;8.13;;
7813;SDS011;3952;48.364;16.022;2023-10-13T02:43:36;10.47;;;8.20;;
7813;SDS011;3952;48.364;16.022;2023-10-13T02:46:03;8.47;;;7.57;;
7813;SDS011;3952;48.364;16.022;2023-10-13T02:48:30;8.40;;;7.60;;
7813;SDS011;3952;48.364;16.022;2023-10-13T02:51:05;8.53;;;7.73;;
7813;SDS011;3952;48.364;16.022;2023-10-13T02:53:40;8.43;;;7.80;;
7813;SDS011;3952;48.364;16.022;2023-10-13T02:56:07;8.03;;;7.23;;
7813;SDS011;3952;48.364;16.022;2023-10-13T02:58:40;8.57;;;7.77;;
7813;SDS011;3952;48.364;16.022;2023-10-13T03:01:10;13.60;;;7.63;;
7813;SDS011;3952;48.364;16.022;2023-10-13T03:03:44;8.03;;;7.43;;
7813;SDS011;3952;48.364;16.022;2023-10-13T03:06:15;7.93;;;7.10;;
7813;SDS011;3952;48.364;16.022;2023-10-13T03:08:44;8.87;;;6.97;;
7813;SDS011;3952;48.364;16.022;2023-10-13T03:11:11;7.37;;;6.77;;
7813;SDS011;3952;48.364;16.022;2023-10-13T03:13:40;8.83;;;8.07;;
7813;SDS011;3952;48.364;16.022;2023-10-13T03:16:11;10.10;;;9.07;;
7813;SDS011;3952;48.364;16.022;2023-10-13T03:18:41;9.07;;;8.33;;
7813;SDS011;3952;48.364;16.022;2023-10-13T03:21:16;8.93;;;8.13;;
7813;SDS011;3952;48.364;16.022;2023-10-13T03:23:53;7.90;;;7.20;;
7813;SDS011;3952;48.364;16.022;2023-10-13T03:26:21;8.43;;;7.63;;
7813;SDS011;3952;48.364;16.022;2023-10-13T03:28:50;7.50;;;6.93;;
7813;SDS011;3952;48.364;16.022;2023-10-13T03:31:18;7.40;;;6.80;;
7813;SDS011;3952;48.364;16.022;2023-10-13T03:33:52;7.57;;;7.00;;
7813;SDS011;3952;48.364;16.022;2023-10-13T03:36:25;7.97;;;7.20;;
7813;SDS011;3952;48.364;16.022;2023-10-13T03:39:10;9.30;;;8.47;;
7813;SDS011;3952;48.364;16.022;2023-10-13T03:41:39;8.90;;;8.10;;
7813;SDS011;3952;48.364;16.022;2023-10-13T03:44:07;8.40;;;7.80;;
7813;SDS011;3952;48.364;16.022;2023-10-13T03:46:40;8.40;;;7.57;;
7813;SDS011;3952;48.364;16.022;2023-10-13T03:49:07;9.40;;;8.40;;
7813;SDS011;3952;48.364;16.022;2023-10-13T03:51:38;24.90;;;17.57;;
7813;SDS011;3952;48.364;16.022;2023-10-13T03:54:06;20.73;;;15.87;;
7813;SDS011;3952;48.364;16.022;2023-10-13T03:56:33;9.63;;;8.60;;
7813;SDS011;3952;48.364;16.022;2023-10-13T03:59:05;9.07;;;8.27;;
7813;SDS011;3952;48.364;16.022;2023-10-13T04:01:43;9.23;;;8.60;;
7813;SDS011;3952;48.364;16.022;2023-10-13T04:04:12;12.57;;;10.00;;
7813;SDS011;3952;48.364;16.022;2023-10-13T04:06:43;10.70;;;9.60;;
7813;SDS011;3952;48.364;16.022;2023-10-13T04:09:38;9.10;;;8.40;;
7813;SDS011;3952;48.364;16.022;2023-10-13T04:12:36;8.80;;;7.90;;
7813;SDS011;3952;48.364;16.022;2023-10-13T04:15:22;10.43;;;7.70;;
7813;SDS011;3952;48.364;16.022;2023-10-13T04:18:00;9.17;;;7.93;;
7813;SDS011;3952;48.364;16.022;2023-10-13T04:20:39;7.90;;;7.30;;
7813;SDS011;3952;48.364;16.022;2023-10-13T04:23:11;7.90;;;7.40;;
7813;SDS011;3952;48.364;16.022;2023-10-13T04:25:45;9.77;;;8.27;;
7813;SDS011;3952;48.364;16.022;2023-10-13T04:28:31;10.07;;;8.27;;
7813;SDS011;3952;48.364;16.022;2023-10-13T04:31:04;9.23;;;8.20;;
7813;SDS011;3952;48.364;16.022;2023-10-13T04:33:49;11.30;;;7.63;;
7813;SDS011;3952;48.364;16.022;2023-10-13T04:36:27;8.47;;;7.73;;
7813;SDS011;3952;48.364;16.022;2023-10-13T04:39:10;7.87;;;7.13;;
7813;SDS011;3952;48.364;16.022;2023-10-13T04:41:42;8.67;;;8.03;;
7813;SDS011;3952;48.364;16.022;2023-10-13T04:44:23;8.53;;;7.90;;
7813;SDS011;3952;48.364;16.022;2023-10-13T04:47:06;10.90;;;8.27;;
7813;SDS011;3952;48.364;16.022;2023-10-13T04:49:44;9.13;;;7.50;;
7813;SDS011;3952;48.364;16.022;2023-10-13T04:52:18;7.30;;;6.80;;
7813;SDS011;3952;48.364;16.022;2023-10-13T04:55:04;10.57;;;7.83;;
7813;SDS011;3952;48.364;16.022;2023-10-13T04:58:02;7.63;;;7.03;;
7813;SDS011;3952;48.364;16.022;2023-10-13T05:00:53;7.37;;;6.77;;
7813;SDS011;3952;48.364;16.022;2023-10-13T05:03:38;8.63;;;7.93;;
7813;SDS011;3952;48.364;16.022;2023-10-13T05:06:39;9.07;;;8.20;;
7813;SDS011;3952;48.364;16.022;2023-10-13T05:09:23;8.93;;;7.47;;
7813;SDS011;3952;48.364;16.022;2023-10-13T05:12:07;8.60;;;7.27;;
7813;SDS011;3952;48.364;16.022;2023-10-13T05:14:48;7.47;;;6.47;;
7813;SDS011;3952;48.364;16.022;2023-10-13T05:17:33;10.83;;;8.10;;
7813;SDS011;3952;48.364;16.022;2023-10-13T05:20:19;8.13;;;7.10;;
7813;SDS011;3952;48.364;16.022;2023-10-13T05:23:04;8.13;;;7.63;;
7813;SDS011;3952;48.364;16.022;2023-10-13T05:25:48;8.20;;;7.50;;
7813;SDS011;3952;48.364;16.022;2023-10-13T05:28:33;8.80;;;8.00;;
7813;SDS011;3952;48.364;16.022;2023-10-13T05:31:17;8.13;;;7.43;;
7813;SDS011;3952;48.364;16.022;2023-10-13T05:34:02;7.47;;;6.77;;
7813;SDS011;3952;48.364;16.022;2023-10-13T05:36:48;8.83;;;8.07;;
7813;SDS011;3952;48.364;16.022;2023-10-13T05:39:33;8.73;;;7.83;;
7813;SDS011;3952;48.364;16.022;2023-10-13T05:42:17;8.73;;;7.83;;
7813;SDS011;3952;48.364;16.022;2023-10-13T05:45:02;7.90;;;7.17;;
7813;SDS011;3952;48.364;16.022;2023-10-13T05:48:02;8.10;;;7.40;;
7813;SDS011;3952;48.364;16.022;2023-10-13T05:50:37;8.17;;;7.53;;
7813;SDS011;3952;48.364;16.022;2023-10-13T05:53:45;8.27;;;7.60;;
7813;SDS011;3952;48.364;16.022;2023-10-13T05:56:41;8.90;;;8.00;;
7813;SDS011;3952;48.364;16.022;2023-10-13T05:59:32;9.07;;;8.30;;
7813;SDS011;3952;48.364;16.022;2023-10-13T06:02:20;8.10;;;7.37;;
7813;SDS011;3952;48.364;16.022;2023-10-13T06:05:06;9.30;;;8.03;;
7813;SDS011;3952;48.364;16.022;2023-10-13T06:07:52;8.43;;;7.73;;
7813;SDS011;3952;48.364;16.022;2023-10-13T06:10:38;9.07;;;8.37;;
7813;SDS011;3952;48.364;16.022;2023-10-13T06:13:23;7.70;;;7.07;;
7813;SDS011;3952;48.364;16.022;2023-10-13T06:16:08;8.37;;;7.67;;
7813;SDS011;3952;48.364;16.022;2023-10-13T06:18:54;9.97;;;7.47;;
7813;SDS011;3952;48.364;16.022;2023-10-13T06:21:39;7.43;;;6.77;;
7813;SDS011;3952;48.364;16.022;2023-10-13T06:24:24;12.07;;;8.03;;
7813;SDS011;3952;48.364;16.022;2023-10-13T06:27:10;8.47;;;7.70;;
7813;SDS011;3952;48.364;16.022;2023-10-13T06:29:55;8.50;;;7.80;;
7813;SDS011;3952;48.364;16.022;2023-10-13T06:32:22;10.50;;;8.30;;
7813;SDS011;3952;48.364;16.022;2023-10-13T06:34:51;8.60;;;7.57;;
7813;SDS011;3952;48.364;16.022;2023-10-13T06:37:23;8.70;;;8.00;;
7813;SDS011;3952;48.364;16.022;2023-10-13T06:39:51;12.93;;;8.43;;
7813;SDS011;3952;48.364;16.022;2023-10-13T06:42:23;8.73;;;7.93;;
7813;SDS011;3952;48.364;16.022;2023-10-13T06:44:52;9.00;;;8.30;;
7813;SDS011;3952;48.364;16.022;2023-10-13T06:47:20;8.63;;;8.03;;
7813;SDS011;3952;48.364;16.022;2023-10-13T06:49:50;9.03;;;8.23;;
7813;SDS011;3952;48.364;16.022;2023-10-13T06:52:17;7.90;;;7.10;;
7813;SDS011;3952;48.364;16.022;2023-10-13T06:54:44;8.87;;;8.00;;
7813;SDS011;3952;48.364;16.022;2023-10-13T06:57:12;9.67;;;8.77;;
7813;SDS011;3952;48.364;16.022;2023-10-13T06:59:47;7.50;;;6.90;;
7813;SDS011;3952;48.364;16.022;2023-10-13T07:02:14;7.83;;;7.03;;
7813;SDS011;3952;48.364;16.022;2023-10-13T07:04:47;8.73;;;7.67;;
7813;SDS011;3952;48.364;16.022;2023-10-13T07:07:22;6.93;;;6.37;;
7813;SDS011;3952;48.364;16.022;2023-10-13T07:09:49;6.80;;;6.30;;
7813;SDS011;3952;48.364;16.022;2023-10-13T07:12:20;8.15;;;6.07;;
7813;SDS011;3952;48.364;16.022;2023-10-13T07:14:53;6.97;;;6.30;;
7813;SDS011;3952;48.364;16.022;2023-10-13T07:17:28;7.03;;;6.43;;
7813;SDS011;3952;48.364;16.022;2023-10-13T07:19:58;5.78;;;5.28;;
7813;SDS011;3952;48.364;16.022;2023-10-13T07:22:39;5.90;;;5.50;;
7813;SDS011;3952;48.364;16.022;2023-10-13T07:25:11;5.97;;;5.47;;
7813;SDS011;3952;48.364;16.022;2023-10-13T07:27:49;6.28;;;5.78;;
7813;SDS011;3952;48.364;16.022;2023-10-13T07:30:18;6.30;;;5.30;;
7813;SDS011;3952;48.364;16.022;2023-10-13T07:32:51;6.20;;;5.60;;
7813;SDS011;3952;48.364;16.022;2023-10-13T07:35:20;6.72;;;6.15;;
7813;SDS011;3952;48.364;16.022;2023-10-13T07:37:50;7.43;;;5.78;;
7813;SDS011;3952;48.364;16.022;2023-10-13T07:40:19;6.60;;;6.03;;
7813;SDS011;3952;48.364;16.022;2023-10-13T07:43:05;6.93;;;5.60;;
7813;SDS011;3952;48.364;16.022;2023-10-13T07:45:37;7.03;;;6.13;;
7813;SDS011;3952;48.364;16.022;2023-10-13T07:48:06;5.93;;;5.40;;
7813;SDS011;3952;48.364;16.022;2023-10-13T07:50:37;7.40;;;5.35;;
7813;SDS011;3952;48.364;16.022;2023-10-13T07:53:05;6.38;;;5.78;;
7813;SDS011;3952;48.364;16.022;2023-10-13T07:55:44;5.47;;;5.18;;
7813;SDS011;3952;48.364;16.022;2023-10-13T07:58:13;5.63;;;5.22;;
7813;SDS011;3952;48.364;16.022;2023-10-13T08:00:42;10.90;;;5.88;;
7813;SDS011;3952;48.364;16.022;2023-10-13T08:03:19;6.15;;;5.65;;
7813;SDS011;3952;48.364;16.022;2023-10-13T08:06:08;6.03;;;5.28;;
7813;SDS011;3952;48.364;16.022;2023-10-13T08:08:45;6.00;;;5.20;;
7813;SDS011;3952;48.364;16.022;2023-10-13T08:11:16;5.70;;;5.30;;
7813;SDS011;3952;48.364;16.022;2023-10-13T08:13:52;6.75;;;5.25;;
7813;SDS011;3952;48.364;16.022;2023-10-13T08:16:22;8.43;;;4.50;;
7813;SDS011;3952;48.364;16.022;2023-10-13T08:18:55;5.05;;;4.68;;
7813;SDS011;3952;48.364;16.022;2023-10-13T08:21:26;5.30;;;4.90;;
7813;SDS011;3952;48.364;16.022;2023-10-13T08:23:57;9.02;;;4.65;;
7813;SDS011;3952;48.364;16.022;2023-10-13T08:26:28;6.00;;;4.45;;
7813;SDS011;3952;48.364;16.022;2023-10-13T08:29:24;4.80;;;4.45;;
7813;SDS011;3952;48.364;16.022;2023-10-13T08:32:10;5.45;;;4.45;;
7813;SDS011;3952;48.364;16.022;2023-10-13T08:35:01;9.63;;;5.13;;
7813;SDS011;3952;48.364;16.022;2023-10-13T08:37:48;7.65;;;4.97;;
7813;SDS011;3952;48.364;16.022;2023-10-13T08:40:40;6.05;;;4.43;;
7813;SDS011;3952;48.364;16.022;2023-10-13T08:43:32;7.72;;;4.47;;
7813;SDS011;3952;48.364;16.022;2023-10-13T08:46:09;6.95;;;4.15;;
7813;SDS011;3952;48.364;16.022;2023-10-13T08:48:51;6.03;;;4.45;;
7813;SDS011;3952;48.364;16.022;2023-10-13T08:51:30;7.78;;;4.90;;
7813;SDS011;3952;48.364;16.022;2023-10-13T08:54:11;7.35;;;4.28;;
7813;SDS011;3952;48.364;16.022;2023-10-13T08:56:55;4.93;;;4.43;;
7813;SDS011;3952;48.364;16.022;2023-10-13T08:59:23;6.43;;;4.05;;
7813;SDS011;3952;48.364;16.022;2023-10-13T09:01:58;6.90;;;4.32;;
7813;SDS011;3952;48.364;16.022;2023-10-13T09:04:42;10.63;;;4.15;;
7813;SDS011;3952;48.364;16.022;2023-10-13T09:07:12;4.20;;;3.63;;
7813;SDS011;3952;48.364;16.022;2023-10-13T09:09:47;4.38;;;3.90;;
7813;SDS011;3952;48.364;16.022;2023-10-13T09:12:26;5.32;;;4.25;;
7813;SDS011;3952;48.364;16.022;2023-10-13T09:15:05;5.43;;;4.32;;
7813;SDS011;3952;48.364;16.022;2023-10-13T09:17:45;8.63;;;4.38;;
7813;SDS011;3952;48.364;16.022;2023-10-13T09:20:27;5.38;;;3.88;;
7813;SDS011;3952;48.364;16.022;2023-10-13T09:23:08;4.80;;;4.25;;
7813;SDS011;3952;48.364;16.022;2023-10-13T09:25:35;8.02;;;4.30;;
7813;SDS011;3952;48.364;16.022;2023-10-13T09:28:03;5.50;;;4.03;;
7813;SDS011;3952;48.364;16.022;2023-10-13T09:30:43;5.63;;;4.20;;
7813;SDS011;3952;48.364;16.022;2023-10-13T09:33:10;4.65;;;3.95;;
7813;SDS011;3952;48.364;16.022;2023-10-13T09:35:43;4.40;;;4.00;;
7813;SDS011;3952;48.364;16.022;2023-10-13T09:38:14;3.83;;;3.63;;
7813;SDS011;3952;48.364;16.022;2023-10-13T09:40:42;5.15;;;3.60;;
7813;SDS011;3952;48.364;16.022;2023-10-13T09:43:15;6.50;;;3.60;;
7813;SDS011;3952;48.364;16.022;2023-10-13T09:45:43;4.80;;;3.80;;
7813;SDS011;3952;48.364;16.022;2023-10-13T09:48:29;3.80;;;3.55;;
7813;SDS011;3952;48.364;16.022;2023-10-13T09:51:00;6.35;;;3.60;;
7813;SDS011;3952;48.364;16.022;2023-10-13T09:53:29;4.03;;;3.63;;
7813;SDS011;3952;48.364;16.022;2023-10-13T09:56:00;4.15;;;3.85;;
7813;SDS011;3952;48.364;16.022;2023-10-13T09:58:41;4.60;;;3.80;;
7813;SDS011;3952;48.364;16.022;2023-10-13T10:01:17;3.90;;;3.50;;
7813;SDS011;3952;48.364;16.022;2023-10-13T10:04:05;4.07;;;3.53;;
7813;SDS011;3952;48.364;16.022;2023-10-13T10:06:36;4.30;;;3.70;;
7813;SDS011;3952;48.364;16.022;2023-10-13T10:09:10;4.35;;;3.70;;
7813;SDS011;3952;48.364;16.022;2023-10-13T10:11:48;5.93;;;3.75;;
7813;SDS011;3952;48.364;16.022;2023-10-13T10:14:33;9.90;;;4.00;;
7813;SDS011;3952;48.364;16.022;2023-10-13T10:17:13;4.35;;;3.10;;
7813;SDS011;3952;48.364;16.022;2023-10-13T10:19:47;5.10;;;3.47;;
7813;SDS011;3952;48.364;16.022;2023-10-13T10:22:25;8.48;;;3.70;;
7813;SDS011;3952;48.364;16.022;2023-10-13T10:24:56;6.57;;;3.38;;
7813;SDS011;3952;48.364;16.022;2023-10-13T10:27:24;10.43;;;3.50;;
7813;SDS011;3952;48.364;16.022;2023-10-13T10:29:54;10.60;;;3.85;;
7813;SDS011;3952;48.364;16.022;2023-10-13T10:32:31;5.82;;;2.78;;
7813;SDS011;3952;48.364;16.022;2023-10-13T10:35:06;3.72;;;3.38;;
7813;SDS011;3952;48.364;16.022;2023-10-13T10:37:41;5.50;;;2.90;;
7813;SDS011;3952;48.364;16.022;2023-10-13T10:40:13;8.07;;;3.45;;
7813;SDS011;3952;48.364;16.022;2023-10-13T10:42:58;3.78;;;3.47;;
7813;SDS011;3952;48.364;16.022;2023-10-13T10:45:26;9.38;;;3.42;;
7813;SDS011;3952;48.364;16.022;2023-10-13T10:47:57;7.57;;;3.25;;
7813;SDS011;3952;48.364;16.022;2023-10-13T10:50:26;6.80;;;3.80;;
7813;SDS011;3952;48.364;16.022;2023-10-13T10:53:01;5.55;;;3.20;;
7813;SDS011;3952;48.364;16.022;2023-10-13T10:55:34;3.63;;;3.08;;
7813;SDS011;3952;48.364;16.022;2023-10-13T10:58:02;3.97;;;3.22;;
7813;SDS011;3952;48.364;16.022;2023-10-13T11:00:31;7.13;;;3.33;;
7813;SDS011;3952;48.364;16.022;2023-10-13T11:03:11;4.80;;;2.97;;
7813;SDS011;3952;48.364;16.022;2023-10-13T11:05:42;3.53;;;3.22;;
7813;SDS011;3952;48.364;16.022;2023-10-13T11:08:21;5.47;;;3.35;;
7813;SDS011;3952;48.364;16.022;2023-10-13T11:10:57;3.25;;;2.90;;
7813;SDS011;3952;48.364;16.022;2023-10-13T11:13:26;3.63;;;3.33;;
7813;SDS011;3952;48.364;16.022;2023-10-13T11:15:56;4.47;;;2.97;;
7813;SDS011;3952;48.364;16.022;2023-10-13T11:18:29;3.88;;;3.25;;
7813;SDS011;3952;48.364;16.022;2023-10-13T11:21:02;5.28;;;3.28;;
7813;SDS011;3952;48.364;16.022;2023-10-13T11:23:33;4.93;;;3.10;;
7813;SDS011;3952;48.364;16.022;2023-10-13T11:26:01;7.60;;;3.35;;
7813;SDS011;3952;48.364;16.022;2023-10-13T11:28:30;5.82;;;2.83;;
7813;SDS011;3952;48.364;16.022;2023-10-13T11:30:59;5.38;;;3.05;;
7813;SDS011;3952;48.364;16.022;2023-10-13T11:33:35;3.20;;;2.83;;
7813;SDS011;3952;48.364;16.022;2023-10-13T11:36:11;3.78;;;3.00;;
7813;SDS011;3952;48.364;16.022;2023-10-13T11:38:44;4.68;;;3.33;;
7813;SDS011;3952;48.364;16.022;2023-10-13T11:41:15;6.10;;;3.40;;
7813;SDS011;3952;48.364;16.022;2023-10-13T11:43:44;4.05;;;3.50;;
7813;SDS011;3952;48.364;16.022;2023-10-13T11:46:30;5.03;;;2.97;;
7813;SDS011;3952;48.364;16.022;2023-10-13T11:49:15;6.80;;;3.17;;
7813;SDS011;3952;48.364;16.022;2023-10-13T11:51:56;7.32;;;3.47;;
7813;SDS011;3952;48.364;16.022;2023-10-13T11:54:35;5.15;;;3.10;;
7813;SDS011;3952;48.364;16.022;2023-10-13T11:57:07;4.00;;;3.20;;
7813;SDS011;3952;48.364;16.022;2023-10-13T11:59:34;4.18;;;2.72;;
7813;SDS011;3952;48.364;16.022;2023-10-13T12:02:09;6.15;;;3.10;;
7813;SDS011;3952;48.364;16.022;2023-10-13T12:04:55;4.32;;;3.08;;
7813;SDS011;3952;48.364;16.022;2023-10-13T12:07:24;5.50;;;3.25;;
7813;SDS011;3952;48.364;16.022;2023-10-13T12:10:19;3.28;;;2.90;;
7813;SDS011;3952;48.364;16.022;2023-10-13T12:13:14;4.45;;;3.08;;
7813;SDS011;3952;48.364;16.022;2023-10-13T12:15:42;4.43;;;3.05;;
7813;SDS011;3952;48.364;16.022;2023-10-13T12:18:17;10.73;;;3.72;;
7813;SDS011;3952;48.364;16.022;2023-10-13T12:20:47;3.65;;;3.15;;
7813;SDS011;3952;48.364;16.022;2023-10-13T12:23:15;3.80;;;2.65;;
7813;SDS011;3952;48.364;16.022;2023-10-13T12:25:44;3.92;;;3.10;;
7813;SDS011;3952;48.364;16.022;2023-10-13T12:28:22;3.53;;;2.80;;
7813;SDS011;3952;48.364;16.022;2023-10-13T12:30:52;4.80;;;2.90;;
7813;SDS011;3952;48.364;16.022;2023-10-13T12:33:22;4.00;;;2.92;;
7813;SDS011;3952;48.364;16.022;2023-10-13T12:35:55;3.78;;;2.97;;
7813;SDS011;3952;48.364;16.022;2023-10-13T12:38:55;5.88;;;2.97;;
7813;SDS011;3952;48.364;16.022;2023-10-13T12:41:41;3.70;;;3.30;;
7813;SDS011;3952;48.364;16.022;2023-10-13T12:44:26;3.78;;;3.28;;
7813;SDS011;3952;48.364;16.022;2023-10-13T12:47:11;6.50;;;3.40;;
7813;SDS011;3952;48.364;16.022;2023-10-13T12:49:55;6.55;;;2.72;;
7813;SDS011;3952;48.364;16.022;2023-10-13T12:52:32;6.95;;;3.22;;
7813;SDS011;3952;48.364;16.022;2023-10-13T12:54:59;4.35;;;3.03;;
7813;SDS011;3952;48.364;16.022;2023-10-13T12:57:36;4.18;;;2.95;;
7813;SDS011;3952;48.364;16.022;2023-10-13T13:00:13;3.33;;;3.03;;
7813;SDS011;3952;48.364;16.022;2023-10-13T13:02:46;4.28;;;3.47;;
7813;SDS011;3952;48.364;16.022;2023-10-13T13:05:16;6.82;;;3.45;;
7813;SDS011;3952;48.364;16.022;2023-10-13T13:07:48;4.45;;;3.53;;
7813;SDS011;3952;48.364;16.022;2023-10-13T13:10:19;3.30;;;3.00;;
7813;SDS011;3952;48.364;16.022;2023-10-13T13:12:55;5.93;;;3.53;;
7813;SDS011;3952;48.364;16.022;2023-10-13T13:15:23;6.32;;;3.38;;
7813;SDS011;3952;48.364;16.022;2023-10-13T13:17:51;3.45;;;2.90;;
7813;SDS011;3952;48.364;16.022;2023-10-13T13:20:18;5.30;;;3.47;;
7813;SDS011;3952;48.364;16.022;2023-10-13T13:22:53;3.65;;;3.10;;
7813;SDS011;3952;48.364;16.022;2023-10-13T13:25:20;3.50;;;3.08;;
7813;SDS011;3952;48.364;16.022;2023-10-13T13:27:51;3.75;;;2.90;;
7813;SDS011;3952;48.364;16.022;2023-10-13T13:30:20;6.13;;;3.10;;
7813;SDS011;3952;48.364;16.022;2023-10-13T13:32:47;3.85;;;3.22;;
7813;SDS011;3952;48.364;16.022;2023-10-13T13:35:16;6.57;;;2.97;;
7813;SDS011;3952;48.364;16.022;2023-10-13T13:37:44;3.95;;;3.03;;
7813;SDS011;3952;48.364;16.022;2023-10-13T13:40:11;3.97;;;3.03;;
7813;SDS011;3952;48.364;16.022;2023-10-13T13:42:46;8.50;;;3.20;;
7813;SDS011;3952;48.364;16.022;2023-10-13T13:45:14;8.38;;;3.47;;
7813;SDS011;3952;48.364;16.022;2023-10-13T13:47:48;7.03;;;3.55;;
7813;SDS011;3952;48.364;16.022;2023-10-13T13:50:19;5.35;;;2.70;;
7813;SDS011;3952;48.364;16.022;2023-10-13T13:52:51;6.00;;;3.28;;
7813;SDS011;3952;48.364;16.022;2023-10-13T13:55:21;5.40;;;3.40;;
7813;SDS011;3952;48.364;16.022;2023-10-13T13:57:49;4.07;;;3.13;;
7813;SDS011;3952;48.364;16.022;2023-10-13T14:00:17;3.50;;;3.22;;
7813;SDS011;3952;48.364;16.022;2023-10-13T14:02:50;4.47;;;2.85;;
7813;SDS011;3952;48.364;16.022;2023-10-13T14:05:17;4.38;;;2.80;;
7813;SDS011;3952;48.364;16.022;2023-10-13T14:07:45;4.65;;;3.10;;
7813;SDS011;3952;48.364;16.022;2023-10-13T14:10:15;3.38;;;2.90;;
7813;SDS011;3952;48.364;16.022;2023-10-13T14:12:59;3.75;;;3.03;;
7813;SDS011;3952;48.364;16.022;2023-10-13T14:15:32;5.07;;;3.00;;
7813;SDS011;3952;48.364;16.022;2023-10-13T14:18:07;7.45;;;3.10;;
7813;SDS011;3952;48.364;16.022;2023-10-13T14:20:40;5.15;;;3.00;;
7813;SDS011;3952;48.364;16.022;2023-10-13T14:23:07;5.75;;;4.03;;
7813;SDS011;3952;48.364;16.022;2023-10-13T14:25:37;5.30;;;3.70;;
7813;SDS011;3952;48.364;16.022;2023-10-13T14:28:09;11.57;;;3.42;;
7813;SDS011;3952;48.364;16.022;2023-10-13T14:30:43;5.68;;;4.10;;
7813;SDS011;3952;48.364;16.022;2023-10-13T14:33:12;5.93;;;5.43;;
7813;SDS011;3952;48.364;16.022;2023-10-13T14:35:40;6.07;;;4.82;;
7813;SDS011;3952;48.364;16.022;2023-10-13T14:38:12;5.95;;;4.35;;
7813;SDS011;3952;48.364;16.022;2023-10-13T14:40:39;4.75;;;3.90;;
7813;SDS011;3952;48.364;16.022;2023-10-13T14:43:06;3.83;;;3.05;;
7813;SDS011;3952;48.364;16.022;2023-10-13T14:45:35;4.50;;;2.90;;
7813;SDS011;3952;48.364;16.022;2023-10-13T14:48:02;6.28;;;3.20;;
7813;SDS011;3952;48.364;16.022;2023-10-13T14:50:37;5.78;;;2.97;;
7813;SDS011;3952;48.364;16.022;2023-10-13T14:53:08;6.32;;;3.35;;
7813;SDS011;3952;48.364;16.022;2023-10-13T14:55:35;7.70;;;6.90;;
7813;SDS011;3952;48.364;16.022;2023-10-13T14:58:04;5.90;;;4.70;;
7813;SDS011;3952;48.364;16.022;2023-10-13T15:00:33;5.40;;;3.28;;
7813;SDS011;3952;48.364;16.022;2023-10-13T15:03:01;5.25;;;3.22;;
7813;SDS011;3952;48.364;16.022;2023-10-13T15:05:31;5.30;;;3.00;;
7813;SDS011;3952;48.364;16.022;2023-10-13T15:08:02;7.15;;;2.92;;
7813;SDS011;3952;48.364;16.022;2023-10-13T15:10:31;5.25;;;2.97;;
7813;SDS011;3952;48.364;16.022;2023-10-13T15:13:01;6.57;;;2.97;;
7813;SDS011;3952;48.364;16.022;2023-10-13T15:15:30;5.68;;;4.13;;
7813;SDS011;3952;48.364;16.022;2023-10-13T15:17:58;9.27;;;5.05;;
7813;SDS011;3952;48.364;16.022;2023-10-13T15:20:26;6.88;;;4.93;;
7813;SDS011;3952;48.364;16.022;2023-10-13T15:22:53;4.63;;;4.13;;
7813;SDS011;3952;48.364;16.022;2023-10-13T15:25:26;7.65;;;5.18;;
7813;SDS011;3952;48.364;16.022;2023-10-13T15:27:57;5.90;;;5.05;;
7813;SDS011;3952;48.364;16.022;2023-10-13T15:30:27;10.68;;;5.07;;
7813;SDS011;3952;48.364;16.022;2023-10-13T15:33:09;7.97;;;4.80;;
7813;SDS011;3952;48.364;16.022;2023-10-13T15:35:38;6.88;;;4.25;;
7813;SDS011;3952;48.364;16.022;2023-10-13T15:38:08;4.53;;;4.05;;
7813;SDS011;3952;48.364;16.022;2023-10-13T15:40:41;4.10;;;3.60;;
7813;SDS011;3952;48.364;16.022;2023-10-13T15:43:09;6.60;;;4.57;;
7813;SDS011;3952;48.364;16.022;2023-10-13T15:45:36;8.82;;;4.25;;